Data for 09/27/2015

Time Sea-Level Adjusted Pressure Absolute Pressure Temperature Relative Humidity Dew Point   
(mb) (inHg) (mb) (inHg) (C) (F) (%) (C) (F)
00:05 1018 30.06 847 25.01 13.5 56.3 44 1.4 34.6
00:10 1018 30.06 847 25.01 13.3 56 44 1.3 34.4
00:15 1018 30.06 847 25.01 13.4 56.2 43 1 33.8
00:20 1018 30.06 847 25.01 13.8 56.8 43 1.3 34.4
00:25 1018 30.06 847 25.01 13.6 56.6 43 1.5 34.6
00:30 1018 30.06 847 25.01 13.4 56.1 44 1.4 34.6
00:35 1018 30.06 847 25.01 13.4 56.1 43 1.1 34
00:40 1018 30.06 847 25.01 13.7 56.6 42 1 33.8
00:45 1018 30.06 847 25.01 13.9 57 42 1.1 34
00:50 1018 30.06 847 25.01 13.8 56.8 42 1.2 34.2
00:55 1018 30.06 847 25.01 13.6 56.5 43 1.2 34.2
01:00 1018 30.06 847 25.01 13.5 56.4 43 1.2 34.2
01:05 1018 30.06 847 25.01 13.5 56.2 43 1.3 34.3
01:10 1018 30.06 847 25.01 13.5 56.4 43 1.2 34.2
01:15 1018 30.06 847 25.01 13.6 56.5 43 1.3 34.4
01:20 1018 30.06 847 25.01 13.5 56.3 43 1.3 34.3
01:25 1018 30.06 847 25.01 13.3 56 44 1.5 34.6
01:30 1018 30.06 847 25.01 13 55.3 46 1.7 35
01:35 1018 30.06 847 25.01 12.8 55.1 46 1.6 34.9
01:40 1018 30.06 847 25.01 12.6 54.6 48 1.8 35.3
01:45 1018 30.06 847 25.01 12.1 53.7 50 2.1 35.7
01:50 1018 30.06 847 25.01 11.4 52.5 52 2 35.6
01:55 1018 30.06 847 25.01 11.2 52.1 52 1.8 35.2
02:00 1018 30.06 847 25.01 11.3 52.3 51 1.5 34.7
02:05 1018 30.06 847 25.01 11.5 52.6 50 1.6 34.8
02:10 1018 30.06 847 25.01 11.5 52.6 50 1.4 34.5
02:15 1018 30.06 847 25.01 11.3 52.3 52 1.7 35.1
02:20 1018 30.06 847 25.01 10.9 51.7 52 1.5 34.7
02:25 1018 30.06 847 25.01 11.4 52.5 49 1 33.8
02:30 1018 30.06 847 25.01 11.7 53 50 1.6 34.8
02:35 1018 30.06 847 25.01 11.6 52.8 49 1.3 34.4
02:40 1018 30.06 847 25.01 12 53.6 47 1 33.8
02:45 1018 30.06 847 25.01 12 53.5 48 1.4 34.5
02:50 1018 30.06 847 25.01 11.9 53.4 47 1.1 34
02:55 1018 30.06 847 25.01 11.9 53.4 47 1.1 33.9
03:00 1018 30.06 847 25.01 11.6 52.9 49 1.4 34.5
03:05 1018 30.06 847 25.01 11.3 52.3 51 1.5 34.7
03:10 1018 30.06 847 25.01 11 51.8 52 1.5 34.6
03:15 1018 30.06 847 25.01 10.9 51.7 51 1.1 34
03:20 1018 30.06 847 25.01 11.2 52.2 50 1.2 34.1
03:25 1018 30.06 847 25.01 11.4 52.5 50 1.3 34.4
03:30 1018 30.06 847 25.01 11 51.7 53 1.9 35.4
03:35 1018 30.06 847 25.01 10.2 50.4 55 1.7 35
03:40 1018 30.06 847 25.01 9.7 49.5 57 1.8 35.2
03:45 1018 30.06 848 25.04 9.3 48.8 58 1.6 34.9
03:50 1018 30.06 848 25.04 9.2 48.6 58 1.5 34.7
03:55 1018 30.06 848 25.04 9.3 48.7 58 1.4 34.6
04:00 1018 30.06 848 25.04 9.4 48.8 58 1.5 34.8
04:05 1019 30.09 848 25.04 9.2 48.6 59 1.6 34.9
04:10 1019 30.09 848 25.04 9 48.2 60 1.7 35.1
04:15 1019 30.09 848 25.04 8.6 47.5 61 1.6 34.9
04:20 1019 30.09 848 25.04 8.7 47.6 61 1.5 34.7
04:25 1019 30.09 848 25.04 9 48.1 59 1.3 34.3
04:30 1019 30.09 848 25.04 9.4 48.9 57 1.4 34.5
04:35 1019 30.09 848 25.04 9.3 48.7 58 1.5 34.7
04:40 1019 30.09 848 25.04 9.2 48.5 58 1.5 34.6
04:45 1019 30.09 848 25.04 9.4 49 57 1.5 34.6
04:50 1019 30.09 848 25.04 9.4 48.8 58 1.5 34.7
04:55 1019 30.09 848 25.04 9.2 48.6 58 1.3 34.3
05:00 1019 30.09 848 25.04 9.5 49.1 57 1.5 34.6
05:05 1019 30.09 848 25.04 9.4 48.9 58 1.5 34.7
05:10 1019 30.09 848 25.04 9.4 48.9 57 1.3 34.3
05:15 1019 30.09 848 25.04 9.5 49.2 56 1.2 34.2
05:20 1019 30.09 848 25.04 9.6 49.2 56 1.3 34.4
05:25 1019 30.09 848 25.04 9.5 49.1 57 1.3 34.4
05:30 1019 30.09 848 25.04 9.4 49 58 1.6 34.8
05:35 1019 30.09 848 25.04 9 48.1 60 1.6 34.9
05:40 1019 30.09 848 25.04 8.6 47.5 61 1.6 34.9
05:45 1019 30.09 848 25.04 8.4 47.2 62 1.5 34.7
05:50 1019 30.09 848 25.04 8.5 47.3 60 1.1 34
05:55 1019 30.09 848 25.04 8.8 47.9 60 1.5 34.7
06:00 1019 30.09 848 25.04 8.6 47.4 60 1.4 34.5
06:05 1019 30.09 848 25.04 8.7 47.7 61 1.5 34.8
06:10 1019 30.09 848 25.04 8.6 47.4 60 1.4 34.5
06:15 1019 30.09 848 25.04 8.7 47.7 60 1.5 34.7
06:20 1019 30.09 848 25.04 8.7 47.7 60 1.4 34.6
06:25 1019 30.09 848 25.04 8.7 47.6 61 1.5 34.8
06:30 1019 30.09 848 25.04 8.6 47.4 62 1.6 34.9
06:35 1019 30.09 848 25.04 8.6 47.5 60 1.4 34.5
06:40 1019 30.09 848 25.04 8.9 48.1 60 1.5 34.8
06:45 1019 30.09 848 25.04 9.1 48.3 59 1.5 34.8
06:50 1019 30.09 848 25.04 9.4 48.8 58 1.5 34.8
06:55 1019 30.09 848 25.04 9.5 49.1 58 1.8 35.2
07:00 1019 30.09 848 25.04 9.3 48.8 59 1.8 35.3
07:05 1019 30.09 848 25.04 9.2 48.6 59 1.6 34.9
07:10 1019 30.09 848 25.04 9.3 48.8 59 1.7 35.1
07:15 1019 30.09 848 25.04 9.7 49.4 58 1.8 35.2
07:20 1019 30.09 848 25.04 9.9 49.8 57 1.9 35.4
07:25 1019 30.09 848 25.04 10.1 50.1 56 1.9 35.3
07:30 1019 30.09 848 25.04 10.4 50.7 55 1.8 35.3
07:35 1019 30.09 848 25.04 10.6 51.1 55 2.1 35.8
07:40 1019 30.09 849 25.07 10.6 51.1 54 1.8 35.3
07:45 1019 30.09 849 25.07 10.9 51.6 54 1.9 35.5
07:50 1019 30.09 849 25.07 11.1 51.9 53 1.9 35.4
07:55 1019 30.09 849 25.07 11.8 53.2 51 1.9 35.5
08:00 1019 30.09 849 25.07 11.8 53.3 52 2.3 36.1
08:05 1019 30.09 849 25.07 12.3 54.1 49 1.9 35.4
08:10 1019 30.09 849 25.07 12.7 54.9 48 2.2 35.9
08:15 1019 30.09 849 25.07 13.4 56.2 47 2.3 36.2
08:20 1019 30.09 849 25.07 13.4 56.1 48 2.7 36.8
08:25 1019 30.09 849 25.07 13.4 56 47 2.2 36
08:30 1019 30.09 849 25.07 13.8 56.9 45 2.3 36.1
08:35 1019 30.09 849 25.07 14.4 58 44 2.5 36.4
08:40 1019 30.09 849 25.07 14.2 57.6 44 2.3 36.1
08:45 1019 30.09 849 25.07 14.5 58.1 44 2.4 36.4
08:50 1019 30.09 849 25.07 14.5 58.1 44 2.4 36.3
08:55 1019 30.09 849 25.07 15.1 59.1 42 2.2 36
09:00 1019 30.09 849 25.07 15.3 59.5 42 2.6 36.7
09:05 1019 30.09 849 25.07 15.5 60 42 2.6 36.7
09:10 1019 30.09 849 25.07 15.6 60.1 41 2.6 36.7
09:15 1019 30.09 849 25.07 15.9 60.5 41 2.6 36.7
09:20 1019 30.09 849 25.07 15.6 60 45 3.7 38.7
09:25 1019 30.09 849 25.07 14.8 58.6 46 3.3 37.9
09:30 1019 30.09 849 25.07 14.5 58.1 47 3.3 38
09:35 1019 30.09 849 25.07 15 59.1 45 3.1 37.7
09:40 1019 30.09 848 25.04 15.5 59.9 44 3.4 38.1
09:45 1019 30.09 848 25.04 15.5 59.9 43 3.1 37.6
09:50 1019 30.09 848 25.04 16 60.7 43 3.5 38.3
09:55 1019 30.09 848 25.04 16.3 61.3 43 4 39.1
10:00 1019 30.09 848 25.04 16.3 61.3 44 4.2 39.5
10:05 1019 30.09 848 25.04 15.7 60.2 45 3.7 38.7
10:10 1019 30.09 848 25.04 15.7 60.3 45 4.1 39.3
10:15 1019 30.09 848 25.04 15.9 60.6 45 4.1 39.4
10:20 1019 30.09 848 25.04 16.2 61.2 43 3.8 38.8
10:25 1019 30.09 848 25.04 17 62.6 42 4.1 39.4
10:30 1019 30.09 848 25.04 17 62.7 41 3.9 39
10:35 1019 30.09 848 25.04 17 62.6 43 4.4 40
10:40 1019 30.09 848 25.04 16.7 62.1 42 4 39.1
10:45 1019 30.09 848 25.04 16.8 62.3 41 3.6 38.5
10:50 1019 30.09 848 25.04 17.6 63.7 40 3.9 39
10:55 1019 30.09 848 25.04 17.7 63.9 43 5 41
11:00 1019 30.09 848 25.04 17 62.6 42 4 39.2
11:05 1019 30.09 848 25.04 17.6 63.8 41 4.3 39.7
11:10 1019 30.09 848 25.04 18.1 64.6 39 4.2 39.6
11:15 1019 30.09 848 25.04 18.7 65.6 39 4.5 40.1
11:20 1019 30.09 848 25.04 18.5 65.3 40 4.7 40.4
11:25 1018 30.06 848 25.04 18 64.3 40 4.3 39.8
11:30 1018 30.06 848 25.04 18.2 64.7 38 3.9 39
11:35 1018 30.06 848 25.04 19 66.2 38 4.6 40.3
11:40 1018 30.06 848 25.04 19 66.2 38 4.4 39.8
11:45 1018 30.06 847 25.01 18.7 65.6 38 4.3 39.7
11:50 1018 30.06 847 25.01 18.5 65.2 37 3.8 38.8
11:55 1018 30.06 847 25.01 18.8 65.9 36 3.5 38.2
12:00 1018 30.06 847 25.01 19.3 66.7 36 4 39.2
12:05 1018 30.06 847 25.01 19.3 66.7 35 3.6 38.5
12:10 1018 30.06 847 25.01 19 66.1 36 3.8 38.9
12:15 1018 30.06 847 25.01 18.5 65.3 37 3.7 38.6
12:20 1018 30.06 847 25.01 19.1 66.3 35 3.5 38.2
12:25 1018 30.06 847 25.01 19.6 67.3 34 3.4 38.1
12:30 1018 30.06 847 25.01 19.3 66.7 34 3.2 37.7
12:35 1018 30.06 847 25.01 19.6 67.3 33 3.2 37.8
12:40 1018 30.06 847 25.01 19.8 67.7 33 3.3 38
12:45 1018 30.06 847 25.01 19.7 67.5 33 3.1 37.6
12:50 1018 30.06 847 25.01 19.9 67.8 33 3.4 38.1
12:55 1018 30.06 847 25.01 19.5 67.1 35 3.8 38.8
13:00 1018 30.06 847 25.01 19.4 67 33 2.8 37.1
13:05 1018 30.06 847 25.01 19.1 66.4 34 3 37.5
13:10 1017 30.03 847 25.01 19.4 67 34 3.3 38
13:15 1017 30.03 847 25.01 19.1 66.3 34 3.1 37.6
13:20 1017 30.03 847 25.01 19.8 67.6 32 2.9 37.2
13:25 1017 30.03 846 24.98 20.4 68.7 32 3.2 37.7
13:30 1017 30.03 846 24.98 20.7 69.3 32 3.4 38.2
13:35 1017 30.03 846 24.98 21 69.8 31 3.2 37.8
13:40 1017 30.03 846 24.98 21.2 70.2 30 3.2 37.8
13:45 1017 30.03 846 24.98 21.1 70 31 3.3 38
13:50 1017 30.03 846 24.98 20.8 69.5 31 3.2 37.8
13:55 1017 30.03 846 24.98 21.5 70.6 30 3.5 38.3
14:00 1017 30.03 846 24.98 21 69.8 29 2.7 36.8
14:05 1017 30.03 846 24.98 21 69.9 30 3.2 37.7
14:10 1017 30.03 846 24.98 20.7 69.2 30 2.8 37.1
14:15 1017 30.03 846 24.98 21.1 70 29 2.7 36.9
14:20 1017 30.03 846 24.98 21.2 70.1 29 2.6 36.7
14:25 1017 30.03 846 24.98 21.3 70.4 31 3.7 38.7
14:30 1017 30.03 846 24.98 20.8 69.4 30 2.9 37.3
14:35 1017 30.03 846 24.98 21.5 70.7 29 3.1 37.6
14:40 1017 30.03 846 24.98 21.4 70.4 29 2.7 36.8
14:45 1017 30.03 846 24.98 21.2 70.1 29 2.8 37
14:50 1017 30.03 846 24.98 21.3 70.3 29 2.5 36.5
14:55 1017 30.03 846 24.98 21.9 71.3 29 3.3 37.9
15:00 1016 30 846 24.98 21.8 71.3 30 3.5 38.3
15:05 1016 30 846 24.98 21.7 71.1 30 3.4 38
15:10 1016 30 846 24.98 22 71.5 29 3.3 37.9
15:15 1016 30 846 24.98 21.9 71.3 30 3.6 38.5
15:20 1016 30 846 24.98 21.4 70.5 30 3.2 37.7
15:25 1016 30 846 24.98 21.5 70.7 29 2.8 37.1
15:30 1016 30 846 24.98 22 71.6 28 3 37.4
15:35 1016 30 845 24.95 22.2 71.9 27 2.6 36.7
15:40 1016 30 845 24.95 22.1 71.7 28 2.9 37.1
15:45 1016 30 846 24.98 22 71.6 29 3.1 37.6
15:50 1016 30 846 24.98 22 71.7 28 3 37.4
15:55 1016 30 846 24.98 22 71.5 28 3 37.5
16:00 1016 30 846 24.98 22 71.7 28 3.1 37.6
16:05 1016 30 845 24.95 21.9 71.4 28 2.7 36.9
16:10 1016 30 846 24.98 21.8 71.3 27 2.2 35.9
16:15 1016 30 846 24.98 21.8 71.3 28 2.5 36.5
16:20 1016 30 846 24.98 21.8 71.3 28 2.6 36.7
16:25 1016 30 846 24.98 21.7 71.1 27 2.3 36.1
16:30 1016 30 846 24.98 21.3 70.3 28 2.1 35.8
16:35 1016 30 846 24.98 21 69.8 29 2.3 36.1
16:40 1016 30 846 24.98 20.8 69.4 28 1.8 35.3
16:45 1016 30 846 24.98 20.8 69.4 28 1.7 35
16:50 1016 30 846 24.98 21.1 70 28 1.9 35.3
16:55 1017 30.03 846 24.98 21.2 70.2 28 2.3 36.2
17:00 1017 30.03 846 24.98 21.3 70.3 28 2.2 35.9
17:05 1017 30.03 846 24.98 21.1 69.9 28 2.2 36
17:10 1017 30.03 846 24.98 21 69.7 29 2.6 36.7
17:15 1017 30.03 846 24.98 20.8 69.4 30 2.5 36.6
17:20 1017 30.03 846 24.98 20.5 68.9 31 2.9 37.1
17:25 1017 30.03 846 24.98 20.7 69.2 31 3.1 37.6
17:30 1017 30.03 846 24.98 20.6 69 32 3.3 37.9
17:35 1017 30.03 846 24.98 20.1 68.1 33 3.2 37.8
17:40 1017 30.03 846 24.98 19.6 67.3 34 3.4 38.1
17:45 1017 30.03 846 24.98 19.4 66.9 35 3.5 38.3
17:50 1017 30.03 846 24.98 19.2 66.5 36 3.7 38.7
17:55 1017 30.03 846 24.98 19.1 66.3 36 3.8 38.9
18:00 1017 30.03 846 24.98 18.9 65.9 38 4.3 39.7
18:05 1017 30.03 846 24.98 18.6 65.6 38 4.3 39.7
18:10 1017 30.03 846 24.98 18.5 65.3 38 4.2 39.6
18:15 1017 30.03 846 24.98 18.3 64.9 39 4.3 39.7
18:20 1017 30.03 847 25.01 18.1 64.6 39 4.2 39.6
18:25 1017 30.03 847 25.01 18 64.3 40 4.2 39.6
18:30 1018 30.06 847 25.01 17.8 64.1 41 4.4 39.9
18:35 1018 30.06 847 25.01 17.7 63.9 40 3.9 39.1
18:40 1018 30.06 847 25.01 17.7 63.8 40 4.1 39.5
18:45 1018 30.06 847 25.01 17.5 63.5 41 4.2 39.6
18:50 1018 30.06 847 25.01 17.4 63.3 42 4.4 39.8
18:55 1018 30.06 847 25.01 17.4 63.2 41 4.1 39.4
19:00 1018 30.06 847 25.01 17.3 63.1 41 4.1 39.5
19:05 1018 30.06 847 25.01 17.2 62.9 42 4.2 39.5
19:10 1018 30.06 847 25.01 17.1 62.8 43 4.6 40.3
19:15 1018 30.06 847 25.01 16.9 62.5 42 4.1 39.3
19:20 1018 30.06 847 25.01 16.8 62.3 41 3.6 38.5
19:25 1018 30.06 847 25.01 16.8 62.2 41 3.7 38.7
19:30 1018 30.06 848 25.04 16.4 61.4 50 5.9 42.7
19:35 1018 30.06 848 25.04 15.1 59.2 51 5 41
19:40 1018 30.06 848 25.04 15.2 59.4 50 5.1 41.1
19:45 1018 30.06 848 25.04 15.1 59.2 51 5 41
19:50 1019 30.09 848 25.04 15 58.9 50 4.9 40.7
19:55 1019 30.09 848 25.04 15.1 59.1 49 4.7 40.4
20:00 1019 30.09 848 25.04 15.4 59.7 48 4.5 40.1
20:05 1018 30.06 848 25.04 15.1 59.3 49 4.7 40.4
20:10 1019 30.09 848 25.04 14.8 58.6 50 4.5 40.1
20:15 1019 30.09 848 25.04 14.7 58.5 50 4.5 40.2
20:20 1019 30.09 848 25.04 14.8 58.7 49 4.4 39.8
20:25 1019 30.09 848 25.04 15.1 59.2 46 3.6 38.5
20:30 1019 30.09 848 25.04 15.2 59.4 51 5.3 41.5
20:35 1019 30.09 848 25.04 15 59.1 47 3.9 39
20:40 1019 30.09 848 25.04 15 59 51 5 41
20:45 1019 30.09 848 25.04 14.9 58.9 51 5 41
20:50 1019 30.09 848 25.04 14.8 58.6 51 4.9 40.8
20:55 1019 30.09 848 25.04 14.8 58.7 49 4.3 39.8
21:00 1019 30.09 848 25.04 14.9 58.7 46 3.5 38.3
21:05 1019 30.09 848 25.04 15.3 59.5 47 4.1 39.5
21:10 1019 30.09 848 25.04 14.9 58.9 49 4.4 39.9
21:15 1019 30.09 848 25.04 14.7 58.5 51 4.9 40.8
21:20 1019 30.09 848 25.04 14.6 58.2 51 4.5 40.2
21:25 1019 30.09 848 25.04 14.4 58 50 4.3 39.7
21:30 1020 30.12 849 25.07 14.4 57.9 50 4.1 39.4
21:35 1020 30.12 849 25.07 14.4 58 46 3.1 37.6
21:40 1019 30.09 849 25.07 14.5 58 49 3.9 39
21:45 1019 30.09 849 25.07 14.1 57.3 52 4.4 39.9
21:50 1019 30.09 849 25.07 13.8 56.8 51 3.9 39.1
21:55 1019 30.09 849 25.07 13.8 56.9 51 3.9 39
22:00 1020 30.12 849 25.07 13.7 56.6 53 4.4 39.9
22:05 1020 30.12 849 25.07 13.5 56.2 54 4.4 39.9
22:10 1020 30.12 849 25.07 13.4 56.2 54 4.4 40
22:15 1020 30.12 849 25.07 13.2 55.7 56 4.7 40.5
22:20 1019 30.09 849 25.07 12.9 55.1 58 4.8 40.6
22:25 1020 30.12 849 25.07 12.7 54.9 53 3.5 38.3
22:30 1020 30.12 849 25.07 12.9 55.2 52 3.4 38.1
22:35 1020 30.12 849 25.07 12.9 55.1 54 3.9 39.1
22:40 1020 30.12 849 25.07 12.8 55.1 53 3.7 38.6
22:45 1020 30.12 849 25.07 12.9 55.2 51 3.1 37.5
22:50 1020 30.12 849 25.07 13 55.4 50 2.7 36.9
22:55 1020 30.12 849 25.07 13 55.4 48 2.4 36.4
23:00 1020 30.12 849 25.07 13.1 55.5 49 2.6 36.7
23:05 1020 30.12 849 25.07 13 55.4 49 2.6 36.6
23:10 1020 30.12 849 25.07 12.8 55.1 51 2.9 37.2
23:15 1020 30.12 849 25.07 12.6 54.7 51 2.8 37
23:20 1020 30.12 849 25.07 12.5 54.6 51 2.6 36.7
23:25 1020 30.12 849 25.07 12.6 54.6 49 2.2 36
23:30 1020 30.12 849 25.07 12.6 54.7 50 2.5 36.5
23:35 1020 30.12 849 25.07 12.6 54.6 50 2.4 36.4
23:40 1020 30.12 849 25.07 12.5 54.5 50 2.3 36.1
23:45 1020 30.12 849 25.07 12.5 54.5 49 2.1 35.9
23:50 1020 30.12 849 25.07 12.5 54.6 50 2.3 36.2
23:55 1020 30.12 849 25.07 12.5 54.4 49 2.2 35.9
24:00 1020 30.12 849 25.07 12.4 54.3 50 2.2 36